createdAt,value
2023-05-24T00:01:04.487Z,23.92
2023-05-24T00:03:35.004Z,24.40
2023-05-24T00:06:03.866Z,20.13
2023-05-24T00:08:31.202Z,16.27
2023-05-24T00:10:59.010Z,21.00
2023-05-24T00:13:27.140Z,20.17
2023-05-24T00:15:54.720Z,18.05
2023-05-24T00:18:22.057Z,25.55
2023-05-24T00:20:49.999Z,17.85
2023-05-24T00:23:17.373Z,18.45
2023-05-24T00:25:44.949Z,17.80
2023-05-24T00:28:12.308Z,19.25
2023-05-24T00:30:40.039Z,19.65
2023-05-24T00:33:07.514Z,17.55
2023-05-24T00:35:35.129Z,26.17
2023-05-24T00:38:02.484Z,17.30
2023-05-24T00:40:30.772Z,16.65
2023-05-24T00:42:58.038Z,17.52
2023-05-24T00:45:25.583Z,19.02
2023-05-24T00:47:53.155Z,20.35
2023-05-24T00:50:21.956Z,16.83
2023-05-24T00:52:51.485Z,20.05
2023-05-24T00:55:19.197Z,17.63
2023-05-24T00:57:46.554Z,20.38
2023-05-24T01:00:14.623Z,19.85
2023-05-24T01:02:43.326Z,16.15
2023-05-24T01:05:13.678Z,17.10
2023-05-24T01:08:02.790Z,18.25
2023-05-24T01:10:56.946Z,21.80
2023-05-24T01:13:30.073Z,20.45
2023-05-24T01:16:06.254Z,17.15
2023-05-24T01:18:57.839Z,16.35
2023-05-24T01:21:56.363Z,19.97
2023-05-24T01:24:49.959Z,21.42
2023-05-24T01:27:18.310Z,19.95
2023-05-24T01:29:53.256Z,19.92
2023-05-24T01:32:21.463Z,22.58
2023-05-24T01:34:48.745Z,18.65
2023-05-24T01:37:17.306Z,24.25
2023-05-24T01:39:44.920Z,19.08
2023-05-24T01:42:12.384Z,32.72
2023-05-24T01:44:42.825Z,22.90
2023-05-24T01:47:25.883Z,19.20
2023-05-24T01:49:57.222Z,21.77
2023-05-24T01:52:31.778Z,21.23
2023-05-24T01:55:01.002Z,24.80
2023-05-24T01:57:29.252Z,23.40
2023-05-24T01:59:58.429Z,25.10
2023-05-24T02:02:26.250Z,23.40
2023-05-24T02:04:53.987Z,22.80
2023-05-24T02:07:21.556Z,28.02
2023-05-24T02:09:49.022Z,27.85
2023-05-24T02:12:16.680Z,28.75
2023-05-24T02:14:43.967Z,23.52
2023-05-24T02:17:11.589Z,29.33
2023-05-24T02:19:38.900Z,25.70
2023-05-24T02:22:07.697Z,25.60
2023-05-24T02:24:35.047Z,31.77
2023-05-24T02:27:03.044Z,26.08
2023-05-24T02:29:30.670Z,34.42
2023-05-24T02:31:58.425Z,25.13
2023-05-24T02:34:25.965Z,26.80
2023-05-24T02:36:56.716Z,25.10
2023-05-24T02:39:24.024Z,29.98
2023-05-24T02:41:52.078Z,29.50
2023-05-24T02:44:19.499Z,30.38
2023-05-24T02:46:47.132Z,26.30
2023-05-24T02:49:14.593Z,29.15
2023-05-24T02:51:42.214Z,28.98
2023-05-24T02:54:09.488Z,28.48
2023-05-24T02:56:37.643Z,30.92
2023-05-24T02:59:05.211Z,34.85
2023-05-24T03:01:34.486Z,32.63
2023-05-24T03:04:03.412Z,34.28
2023-05-24T03:06:31.583Z,32.42
2023-05-24T03:08:59.339Z,36.35
2023-05-24T03:11:27.516Z,39.85
2023-05-24T03:13:54.827Z,33.83
2023-05-24T03:16:23.690Z,33.00
2023-05-24T03:18:52.048Z,30.80
2023-05-24T03:21:21.094Z,33.97
2023-05-24T03:23:48.965Z,36.83
2023-05-24T03:26:18.666Z,43.30
2023-05-24T03:28:47.118Z,34.13
2023-05-24T03:31:14.932Z,36.10
2023-05-24T03:33:42.332Z,37.30
2023-05-24T03:36:10.106Z,36.33
2023-05-24T03:38:37.700Z,45.05
2023-05-24T03:41:05.334Z,46.08
2023-05-24T03:43:34.065Z,41.28
2023-05-24T03:46:03.988Z,40.25
2023-05-24T03:48:31.388Z,40.60
2023-05-24T03:50:59.770Z,41.85
2023-05-24T03:53:27.139Z,43.45
2023-05-24T03:55:55.730Z,42.13
2023-05-24T03:58:23.028Z,44.65
2023-05-24T04:00:52.378Z,43.75
2023-05-24T04:03:20.230Z,45.53
2023-05-24T04:05:48.585Z,39.40
2023-05-24T04:08:16.564Z,38.60
2023-05-24T04:10:44.447Z,48.65
2023-05-24T04:13:12.905Z,46.58
2023-05-24T04:15:40.714Z,37.80
2023-05-24T04:18:09.790Z,38.03
2023-05-24T04:20:38.552Z,42.47
2023-05-24T04:23:05.944Z,37.15
2023-05-24T04:25:33.716Z,42.13
2023-05-24T04:28:03.969Z,34.60
2023-05-24T04:30:33.283Z,33.90
2023-05-24T04:33:00.721Z,45.42
2023-05-24T04:35:30.331Z,33.75
2023-05-24T04:37:57.706Z,31.77
2023-05-24T04:40:25.327Z,36.45
2023-05-24T04:42:52.590Z,31.83
2023-05-24T04:45:20.154Z,31.38
2023-05-24T04:47:47.503Z,28.42
2023-05-24T04:50:15.172Z,36.15
2023-05-24T04:52:42.520Z,27.70
2023-05-24T04:55:10.469Z,25.73
2023-05-24T04:57:37.783Z,39.95
2023-05-24T05:00:07.516Z,29.33
2023-05-24T05:02:35.023Z,27.40
2023-05-24T05:05:02.641Z,30.90
2023-05-24T05:07:29.991Z,25.77
2023-05-24T05:09:57.527Z,46.05
2023-05-24T05:12:24.759Z,29.73
2023-05-24T05:14:52.693Z,27.75
2023-05-24T05:17:19.958Z,25.27
2023-05-24T05:19:47.834Z,36.00
2023-05-24T05:22:15.271Z,25.00
2023-05-24T05:24:42.835Z,24.10
2023-05-24T05:27:10.169Z,26.35
2023-05-24T05:29:37.659Z,26.13
2023-05-24T05:32:05.286Z,22.05
2023-05-24T05:34:33.155Z,23.50
2023-05-24T05:37:00.453Z,22.67
2023-05-24T05:39:28.084Z,26.25
2023-05-24T05:41:55.433Z,23.20
2023-05-24T05:44:23.081Z,28.42
2023-05-24T05:46:50.319Z,23.63
2023-05-24T05:49:18.716Z,18.67
2023-05-24T05:51:47.046Z,22.00
2023-05-24T05:54:15.713Z,20.65
2023-05-24T05:56:48.005Z,20.80
2023-05-24T05:59:16.042Z,26.85
2023-05-24T06:01:47.111Z,22.88
2023-05-24T06:04:15.951Z,23.23
2023-05-24T06:06:45.320Z,17.77
2023-05-24T06:09:13.161Z,22.77
2023-05-24T06:11:44.732Z,21.73
2023-05-24T06:14:19.822Z,25.13
2023-05-24T06:16:48.003Z,23.20
2023-05-24T06:19:16.681Z,16.88
2023-05-24T06:21:48.297Z,19.95
2023-05-24T06:24:22.744Z,21.25
2023-05-24T06:26:52.316Z,17.77
2023-05-24T06:29:21.853Z,18.65
2023-05-24T06:31:50.524Z,18.77
2023-05-24T06:34:21.596Z,18.48
2023-05-24T06:36:51.118Z,17.90
2023-05-24T06:39:19.334Z,19.52
2023-05-24T06:41:47.358Z,17.95
2023-05-24T06:44:16.456Z,18.00
2023-05-24T06:46:43.915Z,16.88
2023-05-24T06:49:12.907Z,16.88
2023-05-24T06:51:40.369Z,19.05
2023-05-24T06:54:07.973Z,17.08
2023-05-24T06:56:35.316Z,20.98
2023-05-24T06:59:03.080Z,18.40
2023-05-24T07:01:30.600Z,17.52
2023-05-24T07:03:59.296Z,22.40
2023-05-24T07:06:27.150Z,19.55
2023-05-24T07:08:54.863Z,17.30
2023-05-24T07:11:22.814Z,19.23
2023-05-24T07:13:50.672Z,30.23
2023-05-24T07:16:18.132Z,16.33
2023-05-24T07:18:46.186Z,18.00
2023-05-24T07:21:13.460Z,16.15
2023-05-24T07:23:41.127Z,17.98
2023-05-24T07:26:09.163Z,19.35
2023-05-24T07:28:38.845Z,17.08
2023-05-24T07:31:09.312Z,15.82
2023-05-24T07:33:40.542Z,19.58
2023-05-24T07:36:08.900Z,21.00
2023-05-24T07:38:36.626Z,19.33
2023-05-24T07:41:04.829Z,18.92
2023-05-24T07:43:32.563Z,17.80
2023-05-24T07:45:59.894Z,17.50
2023-05-24T07:48:28.333Z,16.98
2023-05-24T07:50:55.562Z,18.42
2023-05-24T07:53:23.465Z,21.63
2023-05-24T07:55:51.755Z,14.88
2023-05-24T07:58:19.592Z,20.42
2023-05-24T08:00:46.948Z,21.52
2023-05-24T08:03:14.858Z,16.05
2023-05-24T08:05:42.664Z,19.45
2023-05-24T08:08:10.581Z,22.38
2023-05-24T08:10:38.108Z,18.13
2023-05-24T08:13:05.765Z,20.27
2023-05-24T08:15:33.394Z,16.77
2023-05-24T08:18:00.911Z,22.10
2023-05-24T08:20:28.621Z,13.05
2023-05-24T08:22:56.557Z,16.40
2023-05-24T08:25:24.467Z,15.77
2023-05-24T08:27:52.300Z,19.58
2023-05-24T08:30:20.148Z,19.27
2023-05-24T08:32:47.712Z,17.33
2023-05-24T08:35:20.128Z,21.85
2023-05-24T08:37:49.733Z,13.70
2023-05-24T08:40:18.022Z,13.50
2023-05-24T08:42:46.720Z,21.67
2023-05-24T08:45:15.862Z,20.65
2023-05-24T08:47:43.684Z,13.52
2023-05-24T08:50:13.564Z,16.85
2023-05-24T08:52:42.056Z,15.25
2023-05-24T08:55:11.187Z,13.07
2023-05-24T08:57:41.246Z,18.90
2023-05-24T09:00:14.092Z,15.25
2023-05-24T09:02:43.783Z,17.65
2023-05-24T09:05:16.762Z,31.20
2023-05-24T09:07:45.473Z,20.95
2023-05-24T09:10:14.025Z,11.85
2023-05-24T09:12:48.685Z,16.40
2023-05-24T09:15:16.201Z,12.77
2023-05-24T09:17:43.663Z,11.98
2023-05-24T09:20:12.818Z,15.02
2023-05-24T09:22:42.700Z,13.23
2023-05-24T09:25:13.468Z,15.00
2023-05-24T09:27:41.753Z,14.63
2023-05-24T09:30:11.097Z,15.95
2023-05-24T09:32:39.324Z,20.40
2023-05-24T09:35:10.597Z,18.55
2023-05-24T09:37:41.960Z,15.75
2023-05-24T09:40:20.189Z,19.67
2023-05-24T09:42:51.409Z,13.18
2023-05-24T09:45:19.202Z,23.58
2023-05-24T09:47:46.830Z,18.17
2023-05-24T09:50:17.446Z,20.50
2023-05-24T09:52:45.414Z,16.50
2023-05-24T09:55:16.693Z,16.60
2023-05-24T09:57:45.268Z,13.40
2023-05-24T10:00:16.723Z,16.48
2023-05-24T10:02:53.136Z,12.97
2023-05-24T10:05:22.053Z,19.63
2023-05-24T10:07:49.517Z,14.88
2023-05-24T10:10:17.240Z,13.57
2023-05-24T10:12:47.069Z,18.58
2023-05-24T10:15:15.685Z,17.08
2023-05-24T10:17:43.230Z,20.10
2023-05-24T10:20:12.654Z,22.25
2023-05-24T10:22:48.239Z,16.63
2023-05-24T10:25:21.696Z,20.08
2023-05-24T10:27:57.598Z,15.80
2023-05-24T10:30:42.728Z,11.23
2023-05-24T10:33:13.104Z,14.23
2023-05-24T10:35:43.142Z,9.65
2023-05-24T10:38:10.897Z,12.43
2023-05-24T10:40:42.879Z,10.35
2023-05-24T10:43:11.676Z,13.90
2023-05-24T10:45:41.047Z,11.63
2023-05-24T10:48:10.564Z,14.23
2023-05-24T10:50:38.367Z,13.80
2023-05-24T10:53:16.987Z,12.38
2023-05-24T10:55:57.414Z,12.95
2023-05-24T10:58:59.760Z,16.83
2023-05-24T11:01:28.902Z,17.60
2023-05-24T11:04:26.578Z,15.43
2023-05-24T11:07:01.543Z,16.73
2023-05-24T11:09:29.842Z,10.93
2023-05-24T11:12:04.148Z,13.18
2023-05-24T11:14:32.504Z,15.98
2023-05-24T11:17:01.030Z,16.00
2023-05-24T11:19:34.437Z,13.00
2023-05-24T11:22:06.274Z,13.50
2023-05-24T11:24:34.976Z,13.63
2023-05-24T11:27:03.643Z,12.70
2023-05-24T11:29:31.170Z,10.98
2023-05-24T11:32:06.382Z,13.38
2023-05-24T11:34:34.353Z,14.30
2023-05-24T11:37:03.411Z,10.88
2023-05-24T11:39:36.730Z,13.60
2023-05-24T11:42:06.440Z,19.90
2023-05-24T11:44:35.480Z,9.23
2023-05-24T11:47:05.627Z,11.13
2023-05-24T11:49:32.994Z,11.18
2023-05-24T11:52:01.726Z,17.40
2023-05-24T11:54:29.543Z,15.90
2023-05-24T11:56:57.920Z,14.40
2023-05-24T11:59:28.044Z,13.32
2023-05-24T12:02:00.472Z,20.45
2023-05-24T12:06:57.526Z,15.95
2023-05-24T12:09:25.528Z,17.27
2023-05-24T12:11:53.836Z,15.93
2023-05-24T12:14:28.585Z,15.75
2023-05-24T12:16:57.472Z,16.75
2023-05-24T12:21:57.833Z,17.63
2023-05-24T12:24:26.562Z,22.05
2023-05-24T12:27:01.811Z,27.38
2023-05-24T12:29:38.720Z,18.13
2023-05-24T12:32:12.365Z,19.30
2023-05-24T12:34:44.437Z,18.73
2023-05-24T12:37:13.816Z,21.00
2023-05-24T12:39:43.046Z,20.70
2023-05-24T12:42:14.995Z,24.98
2023-05-24T12:44:43.028Z,22.30
2023-05-24T12:47:11.735Z,21.02
2023-05-24T12:49:39.335Z,19.73
2023-05-24T12:52:07.417Z,19.23
2023-05-24T12:54:35.269Z,23.52
2023-05-24T12:57:03.711Z,23.88
2023-05-24T12:59:31.234Z,17.00
2023-05-24T13:01:59.218Z,17.65
2023-05-24T13:04:27.697Z,23.90
2023-05-24T13:06:55.865Z,25.65
2023-05-24T13:09:23.930Z,16.52
2023-05-24T13:11:52.459Z,23.38
2023-05-24T13:14:20.566Z,20.65
2023-05-24T13:16:49.067Z,26.83
2023-05-24T13:19:17.178Z,25.13
2023-05-24T13:21:45.455Z,18.67
2023-05-24T13:24:15.796Z,19.30
2023-05-24T13:26:44.027Z,19.25
2023-05-24T13:31:42.707Z,16.67
2023-05-24T13:34:13.264Z,17.38
2023-05-24T13:36:42.993Z,15.20
2023-05-24T13:41:42.227Z,16.25
2023-05-24T13:46:57.719Z,14.45
2023-05-24T13:47:40.612Z,15.27
2023-05-24T13:49:25.152Z,17.55
2023-05-24T13:51:56.455Z,14.80
2023-05-24T13:54:26.408Z,18.38
2023-05-24T13:56:57.413Z,18.20
2023-05-24T13:59:24.947Z,15.10
2023-05-24T14:01:52.983Z,14.25
2023-05-24T14:04:20.594Z,28.20
2023-05-24T14:06:48.417Z,13.50
2023-05-24T14:09:16.162Z,16.15
2023-05-24T14:11:45.477Z,12.80
2023-05-24T14:16:43.600Z,11.55
2023-05-24T14:19:10.990Z,13.30
2023-05-24T14:21:38.869Z,12.65
2023-05-24T14:24:06.520Z,11.63
2023-05-24T14:26:34.289Z,18.80
2023-05-24T14:29:02.223Z,10.70
2023-05-24T14:31:30.074Z,11.77
2023-05-24T14:33:57.492Z,11.35
2023-05-24T14:36:25.194Z,9.63
2023-05-24T14:38:52.548Z,11.10
2023-05-24T14:41:20.476Z,16.15
2023-05-24T14:43:47.994Z,12.13
2023-05-24T14:46:15.896Z,11.63
2023-05-24T14:48:43.333Z,12.45
2023-05-24T14:51:10.994Z,11.23
2023-05-24T14:53:38.246Z,10.65
2023-05-24T14:56:09.043Z,10.05
2023-05-24T14:58:36.476Z,9.85
2023-05-24T15:01:04.408Z,10.18
2023-05-24T15:03:32.212Z,10.05
2023-05-24T15:06:00.467Z,9.82
2023-05-24T15:08:28.408Z,10.60
2023-05-24T15:10:58.751Z,10.32
2023-05-24T15:13:26.592Z,11.02
2023-05-24T15:15:56.563Z,10.88
2023-05-24T15:18:25.654Z,11.43
2023-05-24T15:20:53.199Z,10.70
2023-05-24T15:23:21.613Z,11.95
2023-05-24T15:25:49.147Z,10.40
2023-05-24T15:28:18.432Z,10.02
2023-05-24T15:30:47.187Z,10.32
2023-05-24T15:33:17.008Z,12.32
2023-05-24T15:35:44.593Z,13.32
2023-05-24T15:38:12.775Z,10.13
2023-05-24T15:40:42.787Z,12.60
2023-05-24T15:43:11.120Z,11.77
2023-05-24T15:45:38.508Z,9.02
2023-05-24T15:48:06.147Z,11.90
2023-05-24T15:50:57.322Z,10.60
2023-05-24T15:53:21.864Z,9.18
2023-05-24T15:55:49.462Z,12.57
2023-05-24T15:58:17.214Z,10.00
2023-05-24T16:00:44.752Z,15.50
2023-05-24T16:03:15.663Z,12.02
2023-05-24T16:05:43.603Z,13.57
2023-05-24T16:08:11.228Z,11.45
2023-05-24T16:10:38.725Z,14.30
2023-05-24T16:13:06.822Z,18.52
2023-05-24T16:15:36.100Z,12.25
2023-05-24T16:18:08.021Z,13.25
2023-05-24T16:20:35.488Z,13.80
2023-05-24T16:23:03.751Z,13.40
2023-05-24T16:25:31.321Z,16.45
2023-05-24T16:28:00.347Z,16.27
2023-05-24T16:30:27.969Z,15.93
2023-05-24T16:32:55.781Z,18.95
2023-05-24T16:35:23.304Z,23.88
2023-05-24T16:37:51.725Z,14.80
2023-05-24T16:40:19.298Z,15.25
2023-05-24T16:42:49.924Z,14.65
2023-05-24T16:45:17.599Z,26.15
2023-05-24T16:47:45.649Z,18.67
2023-05-24T16:50:15.865Z,22.13
2023-05-24T16:52:44.435Z,18.50
2023-05-24T16:55:12.328Z,22.92
2023-05-24T16:57:40.248Z,17.42
2023-05-24T17:00:08.824Z,19.45
2023-05-24T17:02:36.838Z,15.93
2023-05-24T17:05:04.530Z,17.83
2023-05-24T17:07:32.771Z,21.33
2023-05-24T17:10:00.500Z,20.80
2023-05-24T17:12:29.678Z,17.42
2023-05-24T17:14:57.311Z,24.90
2023-05-24T17:17:25.155Z,18.05
2023-05-24T17:19:53.180Z,20.58
2023-05-24T17:22:21.491Z,18.95
2023-05-24T17:24:48.945Z,17.35
2023-05-24T17:27:19.996Z,25.38
2023-05-24T17:29:49.576Z,17.27
2023-05-24T17:32:17.483Z,19.88
2023-05-24T17:34:45.284Z,23.05
2023-05-24T17:37:13.397Z,21.15
2023-05-24T17:39:41.480Z,22.92
2023-05-24T17:42:09.333Z,23.52
2023-05-24T17:44:36.687Z,22.38
2023-05-24T17:47:04.618Z,28.13
2023-05-24T17:49:32.515Z,20.52
2023-05-24T17:52:00.959Z,18.17
2023-05-24T17:54:28.798Z,22.58
2023-05-24T17:56:56.754Z,27.17
2023-05-24T17:59:24.207Z,25.48
2023-05-24T18:01:52.397Z,20.38
2023-05-24T18:04:19.976Z,21.65
2023-05-24T18:06:47.899Z,29.58
2023-05-24T18:09:16.937Z,22.95
2023-05-24T18:11:44.848Z,23.33
2023-05-24T18:14:12.174Z,25.15
2023-05-24T18:16:40.075Z,21.55
2023-05-24T18:19:07.554Z,32.13
2023-05-24T18:21:35.505Z,20.60
2023-05-24T18:24:03.623Z,26.77
2023-05-24T18:26:31.472Z,23.85
2023-05-24T18:28:58.936Z,23.30
2023-05-24T18:31:26.567Z,22.00
2023-05-24T18:33:54.307Z,24.88
2023-05-24T18:36:22.804Z,28.90
2023-05-24T18:38:50.444Z,22.85
2023-05-24T18:41:19.087Z,31.88
2023-05-24T18:43:46.554Z,21.75
2023-05-24T18:46:15.680Z,24.88
2023-05-24T18:48:43.918Z,26.45
2023-05-24T18:51:13.662Z,22.90
2023-05-24T18:53:41.685Z,26.73
2023-05-24T18:56:10.083Z,29.98
2023-05-24T18:58:37.615Z,30.23
2023-05-24T19:01:05.346Z,26.05
2023-05-24T19:03:35.639Z,30.00
2023-05-24T19:06:03.228Z,31.52
2023-05-24T19:08:30.792Z,31.40
2023-05-24T19:10:59.361Z,23.13
2023-05-24T19:13:27.542Z,25.92
2023-05-24T19:16:00.662Z,21.77
2023-05-24T19:18:28.185Z,24.55
2023-05-24T19:20:55.808Z,30.85
2023-05-24T19:23:23.089Z,23.65
2023-05-24T19:25:51.629Z,34.95
2023-05-24T19:28:19.001Z,23.73
2023-05-24T19:30:46.560Z,25.92
2023-05-24T19:33:14.177Z,26.63
2023-05-24T19:35:42.083Z,22.55
2023-05-24T19:38:10.235Z,27.98
2023-05-24T19:40:38.302Z,26.20
2023-05-24T19:43:06.006Z,24.35
2023-05-24T19:45:33.822Z,30.38
2023-05-24T19:48:01.836Z,24.95
2023-05-24T19:50:31.331Z,23.20
2023-05-24T19:52:59.482Z,28.55
2023-05-24T19:55:27.072Z,25.25
2023-05-24T19:57:54.975Z,25.70
2023-05-24T20:00:22.863Z,24.90
2023-05-24T20:02:50.229Z,24.25
2023-05-24T20:05:18.214Z,23.13
2023-05-24T20:07:45.848Z,29.75
2023-05-24T20:10:14.571Z,23.90
2023-05-24T20:12:42.809Z,27.90
2023-05-24T20:15:15.156Z,23.27
2023-05-24T20:17:45.534Z,27.75
2023-05-24T20:20:15.242Z,28.08
2023-05-24T20:22:42.745Z,25.48
2023-05-24T20:25:10.864Z,28.75
2023-05-24T20:27:42.972Z,34.33
2023-05-24T20:30:12.475Z,32.08
2023-05-24T20:32:40.219Z,29.80
2023-05-24T20:35:08.824Z,29.70
2023-05-24T20:37:36.891Z,26.85
2023-05-24T20:40:05.983Z,23.33
2023-05-24T20:42:34.026Z,23.25
2023-05-24T20:45:03.632Z,29.17
2023-05-24T20:47:31.156Z,31.52
2023-05-24T20:49:58.717Z,25.63
2023-05-24T20:52:26.071Z,28.25
2023-05-24T20:54:53.607Z,28.10
2023-05-24T20:57:20.918Z,26.92
2023-05-24T20:59:48.660Z,26.85
2023-05-24T21:02:16.425Z,30.95
2023-05-24T21:04:44.245Z,27.85
2023-05-24T21:07:11.723Z,29.92
2023-05-24T21:09:39.504Z,32.80
2023-05-24T21:12:07.238Z,29.70
2023-05-24T21:14:34.781Z,29.63
2023-05-24T21:17:02.082Z,26.63
2023-05-24T21:19:29.977Z,30.13
2023-05-24T21:21:57.655Z,34.33
2023-05-24T21:24:25.385Z,32.15
2023-05-24T21:26:52.633Z,33.63
2023-05-24T21:29:20.222Z,30.50
2023-05-24T21:31:48.505Z,30.42
2023-05-24T21:34:16.014Z,39.42
2023-05-24T21:36:43.335Z,36.03
2023-05-24T21:39:10.976Z,38.42
2023-05-24T21:41:38.391Z,32.78
2023-05-24T21:44:08.186Z,39.22
2023-05-24T21:46:36.302Z,34.72
2023-05-24T21:49:03.933Z,31.90
2023-05-24T21:51:31.346Z,39.08
2023-05-24T21:53:58.939Z,35.70
2023-05-24T21:56:27.147Z,31.85
2023-05-24T21:58:55.008Z,35.13
2023-05-24T22:01:22.355Z,34.80
2023-05-24T22:03:50.058Z,36.17
2023-05-24T22:06:17.501Z,39.65
2023-05-24T22:08:45.063Z,32.88
2023-05-24T22:11:12.299Z,28.88
2023-05-24T22:13:40.294Z,38.72
2023-05-24T22:16:10.033Z,30.92
2023-05-24T22:18:37.655Z,30.60
2023-05-24T22:21:05.078Z,33.97
2023-05-24T22:23:32.609Z,35.95
2023-05-24T22:26:00.184Z,37.53
2023-05-24T22:28:28.993Z,33.38
2023-05-24T22:30:57.400Z,39.65
2023-05-24T22:33:25.060Z,34.90
2023-05-24T22:35:52.413Z,30.58
2023-05-24T22:38:19.933Z,30.38
2023-05-24T22:40:47.248Z,35.03
2023-05-24T22:43:14.771Z,32.25
2023-05-24T22:45:42.334Z,33.85
2023-05-24T22:48:10.476Z,31.98
2023-05-24T22:50:38.393Z,30.58
2023-05-24T22:53:06.070Z,34.72
2023-05-24T22:55:33.281Z,30.08
2023-05-24T22:58:01.842Z,35.55
2023-05-24T23:00:29.545Z,35.25
2023-05-24T23:02:57.317Z,34.00
2023-05-24T23:05:24.591Z,36.40
2023-05-24T23:07:52.594Z,41.42
2023-05-24T23:10:19.989Z,35.15
2023-05-24T23:12:47.681Z,34.72
2023-05-24T23:15:16.875Z,36.55
2023-05-24T23:17:44.802Z,40.60
2023-05-24T23:20:14.459Z,42.83
2023-05-24T23:22:42.050Z,43.55
2023-05-24T23:25:09.979Z,35.67
2023-05-24T23:27:37.730Z,38.83
2023-05-24T23:30:05.948Z,34.83
2023-05-24T23:32:33.766Z,36.47
2023-05-24T23:35:01.124Z,39.88
2023-05-24T23:37:28.889Z,37.03
2023-05-24T23:39:56.666Z,35.65
2023-05-24T23:42:24.245Z,34.25
2023-05-24T23:44:51.499Z,38.92
2023-05-24T23:47:19.114Z,47.88
2023-05-24T23:49:46.401Z,37.25
2023-05-24T23:52:15.244Z,42.03
2023-05-24T23:54:42.541Z,43.78
2023-05-24T23:57:10.267Z,45.67
2023-05-24T23:59:37.635Z,36.75
